Time;durP1;ratioP1;P1;durP2;ratioP2;P2;SDS_P1;SDS_P2;PMS_P1;PMS_P2;Temp;Humidity;BMP_temperature;BMP_pressure;BME280_temperature;BME280_humidity;BME280_pressure;Samples;Min_cycle;Max_cycle;Signal;HPM_P1;HPM_P2
2022/04/03 00:01:29;;;;;;;15.98;9.40;;;5.10;80.10;;;;;;5095564;28;20028;-12
2022/04/03 00:03:55;;;;;;;16.00;9.85;;;5.10;80.40;;;;;;5095743;28;20099;-12
2022/04/03 00:06:22;;;;;;;15.52;8.88;;;5.10;81.10;;;;;;5095285;28;20111;-13
2022/04/03 00:08:48;;;;;;;15.57;8.82;;;5.10;80.50;;;;;;5095771;28;20099;-13
2022/04/03 00:11:14;;;;;;;15.00;8.98;;;5.10;80.50;;;;;;5095526;28;20030;-12
2022/04/03 00:13:41;;;;;;;14.48;8.60;;;5.20;80.30;;;;;;5095316;28;20036;-12
2022/04/03 00:16:08;;;;;;;14.25;8.15;;;5.20;80.40;;;;;;5095561;28;20449;-13
2022/04/03 00:18:34;;;;;;;13.60;8.25;;;5.20;80.30;;;;;;5095134;28;20115;-12
2022/04/03 00:21:00;;;;;;;13.52;8.60;;;5.20;80.40;;;;;;5095438;28;20039;-13
2022/04/03 00:23:27;;;;;;;16.38;9.32;;;5.20;81.00;;;;;;5095482;28;20111;-12
2022/04/03 00:25:53;;;;;;;16.00;8.57;;;5.20;81.10;;;;;;5095063;28;20556;-13
2022/04/03 00:28:22;;;;;;;12.25;7.50;;;5.20;80.80;;;;;;5094970;28;20024;-13
2022/04/03 00:30:49;;;;;;;13.13;8.23;;;5.20;80.40;;;;;;5095050;28;20032;-13
2022/04/03 00:33:15;;;;;;;13.23;8.43;;;5.20;80.70;;;;;;5094983;28;20032;-13
2022/04/03 00:35:40;;;;;;;14.68;8.55;;;5.20;80.90;;;;;;5094878;28;20024;-12
2022/04/03 00:38:08;;;;;;;16.13;9.00;;;5.20;81.10;;;;;;5094846;28;20060;-13
2022/04/03 00:40:34;;;;;;;15.00;8.88;;;5.20;81.30;;;;;;5094312;28;20361;-13
2022/04/03 00:43:00;;;;;;;16.27;8.70;;;5.20;80.90;;;;;;5094840;28;20026;-12
2022/04/03 00:45:26;;;;;;;13.10;8.00;;;5.20;80.90;;;;;;5095026;28;20024;-12
2022/04/03 00:47:54;;;;;;;12.55;7.72;;;5.20;80.70;;;;;;5094986;28;20030;-13
2022/04/03 00:50:21;;;;;;;13.07;7.10;;;5.20;80.60;;;;;;5094478;28;20530;-13
2022/04/03 00:52:47;;;;;;;13.90;7.78;;;5.20;80.30;;;;;;5094439;28;20135;-13
2022/04/03 00:55:13;;;;;;;13.00;7.35;;;5.20;80.30;;;;;;5094877;28;20032;-12
2022/04/03 00:57:43;;;;;;;12.77;7.30;;;5.20;80.30;;;;;;5094750;28;20039;-13
2022/04/03 01:00:12;;;;;;;11.40;6.68;;;5.20;80.20;;;;;;5094801;28;20028;-12
2022/04/03 01:02:40;;;;;;;11.75;7.28;;;5.20;80.00;;;;;;5094676;28;20035;-12
2022/04/03 01:05:07;;;;;;;10.40;6.32;;;5.20;79.80;;;;;;5094504;28;20434;-13
2022/04/03 01:07:33;;;;;;;12.57;7.57;;;5.20;79.60;;;;;;5094302;28;20484;-12
2022/04/03 01:10:00;;;;;;;10.77;6.35;;;5.30;79.60;;;;;;5094295;28;20051;-13
2022/04/03 01:12:26;;;;;;;12.20;6.57;;;5.30;79.50;;;;;;5093930;28;20029;-13
2022/04/03 01:14:52;;;;;;;10.52;6.70;;;5.30;79.40;;;;;;5092874;28;20031;-12
2022/04/03 01:17:18;;;;;;;10.65;6.25;;;5.40;79.20;;;;;;5094093;28;20024;-12
2022/04/03 01:19:43;;;;;;;10.38;5.55;;;5.30;79.00;;;;;;5094387;28;20050;-12
2022/04/03 01:22:10;;;;;;;8.00;4.75;;;5.40;78.80;;;;;;5094388;28;20400;-12
2022/04/03 01:24:36;;;;;;;8.10;4.80;;;5.40;78.70;;;;;;5093792;28;20028;-12
2022/04/03 01:27:03;;;;;;;9.68;5.30;;;5.40;78.70;;;;;;5094227;28;20024;-13
2022/04/03 01:29:28;;;;;;;9.23;5.40;;;5.40;78.60;;;;;;5094258;28;20546;-12
2022/04/03 01:31:54;;;;;;;7.68;4.78;;;5.30;78.60;;;;;;5093836;28;20032;-12
2022/04/03 01:34:21;;;;;;;11.48;5.47;;;5.30;78.50;;;;;;5093554;28;20077;-13
2022/04/03 01:36:48;;;;;;;12.73;6.40;;;5.30;78.50;;;;;;5092559;28;20028;-13
2022/04/03 01:39:14;;;;;;;11.00;5.80;;;5.30;78.70;;;;;;5094089;28;20032;-13
2022/04/03 01:41:42;;;;;;;10.50;5.78;;;5.30;78.60;;;;;;5093773;28;20198;-12
2022/04/03 01:44:10;;;;;;;11.20;6.40;;;5.30;78.50;;;;;;5093677;28;20056;-12
2022/04/03 01:46:39;;;;;;;12.73;6.53;;;5.30;78.40;;;;;;5094054;28;20039;-13
2022/04/03 01:49:07;;;;;;;10.65;6.55;;;5.20;78.30;;;;;;5093946;28;20016;-12
2022/04/03 01:51:34;;;;;;;10.45;6.57;;;5.30;78.30;;;;;;5094676;28;20055;-12
2022/04/03 01:54:01;;;;;;;8.98;5.60;;;5.20;78.40;;;;;;5092613;28;20050;-10
2022/04/03 01:56:27;;;;;;;12.45;6.55;;;5.20;78.50;;;;;;5093105;28;20059;-11
2022/04/03 01:58:53;;;;;;;10.45;6.35;;;5.20;78.60;;;;;;5093742;28;20028;-11
2022/04/03 02:01:18;;;;;;;12.65;7.20;;;5.20;78.70;;;;;;5093750;28;20023;-11
2022/04/03 02:03:46;;;;;;;14.88;7.22;;;5.20;78.70;;;;;;5093377;28;20081;-10
2022/04/03 02:06:13;;;;;;;10.13;6.38;;;5.20;78.80;;;;;;5093399;28;20173;-11
2022/04/03 02:08:40;;;;;;;12.07;6.82;;;5.20;78.70;;;;;;5093319;28;20068;-11
2022/04/03 02:11:05;;;;;;;11.13;6.97;;;5.20;78.60;;;;;;5093525;28;20081;-11
2022/04/03 02:13:31;;;;;;;10.55;6.25;;;5.20;78.60;;;;;;5093411;28;20110;-12
2022/04/03 02:15:57;;;;;;;11.00;5.80;;;5.20;78.50;;;;;;5093157;28;20036;-11
2022/04/03 02:18:23;;;;;;;12.05;7.13;;;5.20;78.50;;;;;;5093121;28;20039;-14
2022/04/03 02:20:49;;;;;;;9.90;6.03;;;5.20;78.50;;;;;;5093485;28;20023;-11
2022/04/03 02:23:16;;;;;;;16.13;7.93;;;5.20;78.50;;;;;;5093747;28;20020;-12
2022/04/03 02:25:42;;;;;;;13.15;7.65;;;5.20;78.50;;;;;;5093343;28;20020;-12
2022/04/03 02:28:10;;;;;;;11.20;6.90;;;5.10;78.60;;;;;;5093188;28;20144;-12
2022/04/03 02:30:36;;;;;;;12.60;7.13;;;5.10;78.50;;;;;;5093985;28;20028;-11
2022/04/03 02:33:02;;;;;;;10.05;7.18;;;5.10;78.40;;;;;;5093411;28;20078;-12
2022/04/03 02:35:28;;;;;;;10.88;6.25;;;5.10;78.50;;;;;;5092996;28;20476;-13
2022/04/03 02:37:54;;;;;;;7.97;5.45;;;5.00;78.50;;;;;;5093077;28;20023;-11
2022/04/03 02:40:20;;;;;;;9.02;5.65;;;5.00;78.60;;;;;;5092981;28;20261;-12
2022/04/03 02:42:46;;;;;;;9.95;5.88;;;4.90;78.70;;;;;;5092969;28;20547;-12
2022/04/03 02:45:12;;;;;;;12.63;6.68;;;4.90;78.70;;;;;;5093264;28;20024;-12
2022/04/03 02:47:39;;;;;;;13.68;8.43;;;4.90;78.80;;;;;;5092949;28;20507;-11
2022/04/03 02:50:07;;;;;;;12.35;7.50;;;4.90;78.80;;;;;;5092913;28;20050;-13
2022/04/03 02:52:33;;;;;;;11.50;8.13;;;4.90;78.80;;;;;;5092587;28;20058;-11
2022/04/03 02:54:59;;;;;;;11.50;7.97;;;4.90;78.90;;;;;;5091595;28;20032;-11
2022/04/03 02:57:25;;;;;;;12.35;7.97;;;4.90;78.90;;;;;;5092746;28;20028;-12
2022/04/03 02:59:50;;;;;;;16.42;8.38;;;4.90;78.90;;;;;;5093094;28;20123;-12
2022/04/03 03:02:16;;;;;;;11.80;7.28;;;4.90;79.00;;;;;;5092777;28;20027;-11
2022/04/03 03:04:42;;;;;;;11.27;7.35;;;4.90;79.00;;;;;;5095212;28;20058;-12
2022/04/03 03:07:10;;;;;;;13.23;7.10;;;4.90;78.90;;;;;;5096591;28;20021;-12
2022/04/03 03:09:36;;;;;;;11.00;6.47;;;4.90;78.90;;;;;;5096597;28;20063;-12
2022/04/03 03:12:02;;;;;;;9.52;6.28;;;4.90;78.80;;;;;;5096412;28;20509;-11
2022/04/03 03:14:28;;;;;;;12.85;6.95;;;4.90;78.80;;;;;;5096509;28;20047;-12
2022/04/03 03:16:55;;;;;;;10.35;6.20;;;4.90;78.80;;;;;;5096455;28;20035;-11
2022/04/03 03:19:22;;;;;;;10.27;6.22;;;5.00;78.70;;;;;;5096708;28;20046;-12
2022/04/03 03:21:48;;;;;;;9.38;5.80;;;5.00;78.60;;;;;;5096995;28;20100;-12
2022/04/03 03:24:14;;;;;;;10.15;6.22;;;5.00;78.60;;;;;;5096463;28;20107;-12
2022/04/03 03:26:40;;;;;;;12.80;5.88;;;5.10;78.50;;;;;;5096475;28;20020;-12
2022/04/03 03:29:06;;;;;;;10.85;6.50;;;5.10;78.40;;;;;;5096540;28;20117;-12
2022/04/03 03:31:32;;;;;;;8.48;5.30;;;5.20;78.20;;;;;;5096176;28;20474;-12
2022/04/03 03:33:58;;;;;;;11.35;6.07;;;5.20;78.10;;;;;;5096483;28;20052;-11
2022/04/03 03:36:24;;;;;;;7.88;4.95;;;5.20;78.00;;;;;;5096461;28;20480;-12
2022/04/03 03:38:50;;;;;;;9.38;5.00;;;5.30;77.90;;;;;;5096062;28;20036;-12
2022/04/03 03:41:18;;;;;;;11.88;5.05;;;5.30;77.80;;;;;;5096229;28;20141;-12
2022/04/03 03:43:44;;;;;;;8.68;5.05;;;5.30;77.80;;;;;;5095865;28;20484;-11
2022/04/03 03:46:10;;;;;;;8.40;5.13;;;5.30;77.70;;;;;;5096301;28;20035;-12
2022/04/03 03:48:37;;;;;;;11.23;6.07;;;5.30;77.70;;;;;;5096003;28;20031;-12
2022/04/03 03:51:04;;;;;;;8.13;4.82;;;5.20;77.70;;;;;;5095838;28;20073;-12
2022/04/03 03:53:30;;;;;;;7.47;4.65;;;5.20;77.70;;;;;;5095786;28;20534;-11
2022/04/03 03:55:57;;;;;;;11.57;5.80;;;5.10;77.80;;;;;;5095847;28;20032;-12
2022/04/03 03:58:24;;;;;;;8.52;5.20;;;5.10;77.80;;;;;;5095455;28;20077;-11
2022/04/03 04:00:50;;;;;;;8.13;4.97;;;5.10;77.80;;;;;;5095901;28;20028;-11
2022/04/03 04:03:16;;;;;;;8.73;5.20;;;5.10;77.80;;;;;;5095834;28;20032;-12
2022/04/03 04:05:42;;;;;;;11.25;5.30;;;5.10;77.80;;;;;;5095550;28;20534;-12
2022/04/03 04:08:08;;;;;;;9.02;4.72;;;5.10;77.70;;;;;;5095451;28;20032;-12
2022/04/03 04:10:35;;;;;;;7.20;5.00;;;5.10;77.80;;;;;;5095099;28;20028;-12
2022/04/03 04:13:01;;;;;;;7.13;4.63;;;5.10;77.80;;;;;;5095372;28;20040;-11
2022/04/03 04:15:28;;;;;;;8.68;5.10;;;5.00;77.80;;;;;;5094652;28;20096;-12
2022/04/03 04:17:55;;;;;;;6.93;4.82;;;5.00;77.90;;;;;;5095276;28;20395;-11
2022/04/03 04:20:21;;;;;;;6.32;4.32;;;4.90;78.00;;;;;;5095167;28;20102;-12
2022/04/03 04:22:49;;;;;;;9.15;5.07;;;4.90;78.10;;;;;;5095947;28;20073;-12
2022/04/03 04:25:16;;;;;;;6.53;4.22;;;4.90;78.20;;;;;;5093912;28;20111;-11
2022/04/03 04:27:44;;;;;;;9.15;5.40;;;4.80;78.20;;;;;;5095017;28;20036;-12
2022/04/03 04:30:10;;;;;;;9.70;5.47;;;4.80;78.40;;;;;;5095197;28;20098;-12
2022/04/03 04:32:36;;;;;;;10.25;5.63;;;4.80;78.40;;;;;;5095115;28;20025;-12
2022/04/03 04:35:03;;;;;;;10.65;4.70;;;4.70;78.70;;;;;;5095135;28;20035;-12
2022/04/03 04:37:31;;;;;;;12.43;5.85;;;4.60;78.60;;;;;;5095301;28;20016;-12
2022/04/03 04:39:57;;;;;;;11.75;5.78;;;4.60;78.80;;;;;;5095188;28;20028;-12
2022/04/03 04:42:23;;;;;;;11.10;5.35;;;4.60;78.80;;;;;;5094481;28;20498;-12
2022/04/03 04:44:49;;;;;;;10.32;5.68;;;4.50;78.80;;;;;;5095383;28;20050;-12
2022/04/03 04:47:15;;;;;;;9.90;5.88;;;4.50;78.90;;;;;;5095061;28;20028;-12
2022/04/03 04:49:41;;;;;;;7.93;4.78;;;4.50;79.20;;;;;;5094976;28;20051;-12
2022/04/03 04:52:07;;;;;;;8.18;5.10;;;4.40;79.00;;;;;;5094566;28;20117;-12
2022/04/03 04:54:35;;;;;;;8.20;5.15;;;4.40;79.10;;;;;;5094653;28;20040;-12
2022/04/03 04:57:01;;;;;;;10.75;5.93;;;4.40;79.20;;;;;;5094679;28;20042;-12
2022/04/03 04:59:27;;;;;;;10.30;5.88;;;4.40;79.40;;;;;;5094780;28;20024;-12
2022/04/03 05:01:56;;;;;;;8.13;4.80;;;4.30;79.60;;;;;;5095591;28;20364;-12
2022/04/03 05:04:25;;;;;;;9.25;6.15;;;4.30;79.60;;;;;;5094463;28;20097;-12
2022/04/03 05:06:52;;;;;;;8.68;4.90;;;4.30;79.70;;;;;;5094394;28;20028;-12
2022/04/03 05:09:19;;;;;;;10.18;5.53;;;4.30;79.60;;;;;;5094717;28;20023;-11
2022/04/03 05:11:49;;;;;;;7.40;5.07;;;4.30;79.60;;;;;;5094190;28;20028;-12
2022/04/03 05:14:15;;;;;;;8.93;5.07;;;4.40;79.50;;;;;;5094241;28;20047;-12
2022/04/03 05:16:42;;;;;;;7.97;4.97;;;4.40;79.50;;;;;;5095305;28;20046;-12
2022/04/03 05:19:12;;;;;;;9.75;5.85;;;4.50;79.30;;;;;;5094961;28;20032;-12
2022/04/03 05:21:39;;;;;;;6.93;4.30;;;4.50;79.60;;;;;;5094413;28;20039;-12
2022/04/03 05:24:05;;;;;;;14.65;7.35;;;4.60;79.70;;;;;;5094361;28;20028;-12
2022/04/03 05:26:31;;;;;;;8.60;5.35;;;4.70;79.30;;;;;;5093683;28;20093;-11
2022/04/03 05:28:57;;;;;;;8.02;5.05;;;4.80;79.40;;;;;;5093957;28;20403;-11
2022/04/03 05:31:26;;;;;;;10.23;4.97;;;4.80;79.50;;;;;;5093847;28;20021;-12
2022/04/03 05:33:55;;;;;;;8.75;5.45;;;4.90;79.30;;;;;;5093820;28;20028;-11
2022/04/03 05:36:22;;;;;;;8.70;5.43;;;5.00;79.00;;;;;;5092231;28;20378;-14
2022/04/03 05:38:48;;;;;;;8.57;5.63;;;5.10;79.10;;;;;;5094089;28;20028;-11
2022/04/03 05:41:14;;;;;;;9.10;5.53;;;5.20;78.70;;;;;;5093959;28;20031;-11
2022/04/03 05:43:40;;;;;;;10.20;5.55;;;5.30;78.60;;;;;;5094011;28;20024;-11
2022/04/03 05:46:07;;;;;;;10.75;5.60;;;5.40;79.40;;;;;;5093989;28;20345;-11
2022/04/03 05:48:33;;;;;;;10.50;5.93;;;5.40;79.20;;;;;;5093447;28;20549;-12
2022/04/03 05:50:59;;;;;;;8.15;5.35;;;5.60;79.20;;;;;;5094432;28;20099;-12
2022/04/03 05:53:25;;;;;;;8.20;5.20;;;5.70;79.10;;;;;;5093319;28;20056;-12
2022/04/03 05:55:51;;;;;;;8.18;5.32;;;5.90;78.70;;;;;;5093299;28;20380;-12
2022/04/03 05:58:18;;;;;;;9.50;5.50;;;6.00;78.70;;;;;;5093600;28;20062;-13
2022/04/03 06:00:44;;;;;;;10.07;6.75;;;6.10;78.60;;;;;;5094060;28;20399;-12
2022/04/03 06:03:10;;;;;;;10.68;5.88;;;6.40;78.90;;;;;;5093759;28;20028;-11
2022/04/03 06:05:38;;;;;;;12.40;7.70;;;6.50;78.50;;;;;;5093672;28;20020;-12
2022/04/03 06:08:05;;;;;;;9.63;6.28;;;6.80;78.90;;;;;;5093551;28;20055;-13
2022/04/03 06:10:34;;;;;;;8.55;5.68;;;7.10;78.50;;;;;;5093097;28;20032;-12
2022/04/03 06:13:07;;;;;;;8.48;5.82;;;7.30;78.00;;;;;;5093736;28;20089;-12
2022/04/03 06:15:37;;;;;;;11.52;6.35;;;7.60;77.60;;;;;;5093371;28;20042;-12
2022/04/03 06:18:06;;;;;;;9.65;5.70;;;7.90;77.30;;;;;;5093367;28;20031;-12
2022/04/03 06:20:33;;;;;;;12.95;7.40;;;8.20;76.80;;;;;;5093446;28;20077;-11
2022/04/03 06:22:59;;;;;;;13.07;7.85;;;8.40;75.90;;;;;;5093487;28;20028;-12
2022/04/03 06:25:25;;;;;;;11.45;6.18;;;8.60;74.50;;;;;;5093341;28;20472;-12
2022/04/03 06:27:52;;;;;;;11.43;6.30;;;8.90;73.90;;;;;;5092978;28;20480;-11
2022/04/03 06:30:19;;;;;;;11.55;6.18;;;9.00;73.40;;;;;;5092881;28;20028;-11
2022/04/03 06:32:45;;;;;;;10.88;5.28;;;9.30;73.30;;;;;;5093053;28;20433;-12
2022/04/03 06:35:11;;;;;;;8.52;4.32;;;9.40;72.40;;;;;;5092965;28;20032;-11
2022/04/03 06:37:37;;;;;;;7.20;4.35;;;9.70;72.10;;;;;;5093361;28;20020;-10
2022/04/03 06:40:05;;;;;;;6.78;3.80;;;9.90;70.10;;;;;;5096077;28;20027;-11
2022/04/03 06:42:31;;;;;;;7.00;4.30;;;10.00;68.20;;;;;;5097106;28;20426;-11
2022/04/03 06:44:59;;;;;;;5.93;3.55;;;10.20;65.30;;;;;;5097063;28;20065;-11
2022/04/03 06:47:25;;;;;;;5.35;3.58;;;10.30;64.30;;;;;;5097669;28;20349;-11
2022/04/03 06:49:51;;;;;;;7.53;3.75;;;10.40;63.80;;;;;;5097069;28;20040;-11
2022/04/03 06:52:17;;;;;;;6.85;3.53;;;10.40;62.40;;;;;;5096647;28;20052;-11
2022/04/03 06:54:44;;;;;;;5.10;3.58;;;10.50;62.50;;;;;;5097376;28;20032;-11
2022/04/03 06:57:14;;;;;;;6.38;3.75;;;10.60;62.20;;;;;;5096793;28;20500;-12
2022/04/03 06:59:42;;;;;;;6.18;3.90;;;10.70;62.00;;;;;;5096831;28;20445;-11
2022/04/03 07:02:08;;;;;;;6.50;3.90;;;10.90;60.80;;;;;;5097655;28;20017;-11
2022/04/03 07:04:35;;;;;;;7.82;3.88;;;11.00;61.10;;;;;;5096863;28;20028;-11
2022/04/03 07:07:02;;;;;;;6.28;3.80;;;11.10;58.40;;;;;;5097539;28;20052;-12
2022/04/03 07:09:28;;;;;;;6.43;3.90;;;11.20;59.30;;;;;;5096660;28;20028;-11
2022/04/03 07:11:54;;;;;;;7.15;3.78;;;11.30;59.60;;;;;;5096750;28;20072;-11
2022/04/03 07:14:20;;;;;;;4.88;3.47;;;11.50;57.00;;;;;;5096548;28;20460;-12
2022/04/03 07:16:46;;;;;;;5.60;3.88;;;11.60;57.20;;;;;;5096818;28;20024;-12
2022/04/03 07:19:12;;;;;;;7.53;3.75;;;11.60;54.50;;;;;;5096450;28;20189;-12
2022/04/03 07:21:37;;;;;;;6.03;3.58;;;11.60;56.40;;;;;;5096398;28;20028;-10
2022/04/03 07:24:07;;;;;;;6.35;4.10;;;11.80;56.60;;;;;;5096406;28;20024;-10
2022/04/03 07:26:33;;;;;;;8.13;4.07;;;11.90;56.70;;;;;;5094914;28;20090;-11
2022/04/03 07:28:59;;;;;;;6.38;4.00;;;11.90;54.20;;;;;;5096858;28;20028;-11
2022/04/03 07:31:28;;;;;;;6.18;3.75;;;11.90;54.80;;;;;;5096220;28;20031;-12
2022/04/03 07:33:55;;;;;;;5.63;4.10;;;12.00;55.40;;;;;;5096432;28;20044;-12
2022/04/03 07:36:21;;;;;;;6.03;3.90;;;12.10;53.20;;;;;;5095872;28;20032;-10
2022/04/03 07:38:47;;;;;;;7.55;4.55;;;12.10;53.20;;;;;;5096372;28;20031;-10
2022/04/03 07:41:13;;;;;;;6.45;4.40;;;12.20;53.10;;;;;;5095957;28;20077;-11
2022/04/03 07:43:39;;;;;;;7.15;4.10;;;12.20;54.50;;;;;;5096173;28;20077;-11
2022/04/03 07:46:05;;;;;;;6.47;3.90;;;12.30;53.10;;;;;;5094707;28;20024;-11
2022/04/03 07:48:31;;;;;;;6.07;3.70;;;12.40;52.20;;;;;;5095783;28;20488;-11
2022/04/03 07:50:56;;;;;;;6.72;3.92;;;12.40;52.30;;;;;;5094560;28;20070;-11
2022/04/03 07:53:23;;;;;;;6.45;4.22;;;12.30;52.60;;;;;;5095688;28;20075;-11
2022/04/03 07:55:49;;;;;;;6.50;4.55;;;12.30;51.40;;;;;;5095922;28;20107;-11
2022/04/03 07:58:15;;;;;;;6.15;4.20;;;12.30;53.70;;;;;;5095733;28;20069;-11
2022/04/03 08:00:41;;;;;;;7.60;4.43;;;12.30;51.90;;;;;;5096047;28;20028;-11
2022/04/03 08:03:07;;;;;;;6.60;3.95;;;12.30;52.10;;;;;;5095644;28;20047;-12
2022/04/03 08:05:34;;;;;;;5.70;3.90;;;12.30;50.80;;;;;;5095582;28;20056;-11
2022/04/03 08:07:59;;;;;;;6.85;4.20;;;12.40;52.20;;;;;;5095466;28;20031;-11
2022/04/03 08:10:25;;;;;;;5.15;3.80;;;12.60;51.80;;;;;;5095267;28;20024;-11
2022/04/03 08:12:52;;;;;;;6.07;4.32;;;12.90;51.10;;;;;;5095366;28;20108;-10
2022/04/03 08:15:20;;;;;;;6.40;3.83;;;13.10;49.60;;;;;;5095585;28;20113;-11
2022/04/03 08:17:46;;;;;;;6.30;3.95;;;13.00;49.30;;;;;;5095601;28;20032;-11
2022/04/03 08:20:16;;;;;;;5.00;3.72;;;12.90;48.80;;;;;;5095365;28;20098;-13
2022/04/03 08:22:44;;;;;;;5.88;3.40;;;12.90;50.50;;;;;;5095798;28;20494;-11
2022/04/03 08:25:12;;;;;;;5.22;3.90;;;12.90;51.00;;;;;;5095506;28;20020;-12
2022/04/03 08:27:42;;;;;;;4.90;3.47;;;12.90;49.90;;;;;;5095053;28;20107;-11
2022/04/03 08:30:10;;;;;;;5.10;3.78;;;12.90;50.70;;;;;;5095495;28;20085;-12
2022/04/03 08:32:36;;;;;;;6.18;3.75;;;13.00;49.40;;;;;;5094811;28;20032;-12
2022/04/03 08:35:03;;;;;;;4.93;3.58;;;13.00;50.30;;;;;;5095333;28;20032;-12
2022/04/03 08:37:29;;;;;;;4.75;3.63;;;13.20;49.40;;;;;;5095233;28;20028;-12
2022/04/03 08:39:55;;;;;;;4.75;3.30;;;13.50;48.90;;;;;;5095237;28;20102;-11
2022/04/03 08:42:21;;;;;;;5.43;3.50;;;13.90;48.70;;;;;;5094873;28;20447;-13
2022/04/03 08:44:47;;;;;;;5.65;3.70;;;14.20;46.30;;;;;;5095084;28;20020;-13
2022/04/03 08:47:17;;;;;;;6.03;3.70;;;14.40;46.30;;;;;;5094738;28;20483;-12
2022/04/03 08:49:46;;;;;;;5.18;3.67;;;14.60;45.10;;;;;;5095376;28;20051;-11
2022/04/03 08:52:13;;;;;;;5.93;3.92;;;14.80;43.70;;;;;;5094392;28;20453;-12
2022/04/03 08:54:40;;;;;;;5.40;3.80;;;14.90;43.30;;;;;;5095280;28;20032;-12
2022/04/03 08:57:07;;;;;;;6.20;3.35;;;15.10;43.30;;;;;;5094736;28;20020;-11
2022/04/03 08:59:37;;;;;;;4.93;3.60;;;15.30;43.80;;;;;;5094532;28;20028;-11
2022/04/03 09:02:03;;;;;;;5.07;3.70;;;15.40;44.10;;;;;;5094398;28;20050;-12
2022/04/03 09:04:31;;;;;;;5.53;3.80;;;15.60;41.90;;;;;;5094190;28;20059;-12
2022/04/03 09:06:59;;;;;;;5.45;3.80;;;15.70;41.20;;;;;;5094420;28;20036;-11
2022/04/03 09:09:27;;;;;;;6.13;3.95;;;15.80;41.30;;;;;;5095244;28;20024;-12
2022/04/03 09:12:10;;;;;;;6.35;3.97;;;16.00;42.40;;;;;;5094568;28;20032;-11
2022/04/03 09:14:44;;;;;;;4.20;3.22;;;16.30;40.70;;;;;;5095274;28;20068;-12
2022/04/03 09:17:10;;;;;;;5.03;3.65;;;16.30;39.70;;;;;;5094517;28;20047;-11
2022/04/03 09:19:36;;;;;;;6.80;4.32;;;16.40;40.30;;;;;;5094436;28;20476;-12
2022/04/03 09:22:02;;;;;;;5.85;3.80;;;16.60;40.70;;;;;;5092895;28;20043;-12
2022/04/03 09:24:29;;;;;;;7.53;3.70;;;16.70;39.10;;;;;;5093924;28;20539;-12
2022/04/03 09:27:01;;;;;;;5.28;3.45;;;16.80;38.50;;;;;;5094248;28;20032;-11
2022/04/03 09:29:27;;;;;;;6.15;3.85;;;16.80;39.00;;;;;;5094015;28;20017;-13
2022/04/03 09:32:01;;;;;;;5.65;3.47;;;16.80;39.40;;;;;;5093932;28;20030;-12
2022/04/03 09:34:29;;;;;;;5.47;3.58;;;16.80;39.50;;;;;;5094179;28;20489;-12
2022/04/03 09:36:58;;;;;;;6.63;3.70;;;16.70;39.60;;;;;;5093782;28;20036;-12
2022/04/03 09:39:26;;;;;;;5.53;4.07;;;16.70;39.70;;;;;;5094133;28;20020;-12
2022/04/03 09:42:00;;;;;;;6.95;4.03;;;16.90;38.90;;;;;;5093657;28;20031;-11
2022/04/03 09:44:36;;;;;;;5.95;4.00;;;16.90;38.60;;;;;;5093603;28;20078;-12
2022/04/03 09:47:14;;;;;;;6.30;4.00;;;17.20;38.60;;;;;;5093630;28;20036;-12
2022/04/03 09:49:42;;;;;;;6.55;4.15;;;17.30;39.80;;;;;;5093953;28;20020;-12
2022/04/03 09:52:12;;;;;;;7.07;3.92;;;17.10;39.80;;;;;;5093603;28;20044;-12
2022/04/03 09:54:39;;;;;;;4.65;3.55;;;17.00;40.40;;;;;;5093329;28;20470;-12
2022/04/03 09:57:21;;;;;;;5.25;3.60;;;17.00;39.00;;;;;;5093425;28;20436;-12
2022/04/03 09:59:53;;;;;;;5.43;4.00;;;17.00;38.70;;;;;;5093642;28;20054;-12
2022/04/03 10:02:24;;;;;;;5.10;3.58;;;17.10;38.60;;;;;;5093378;28;20031;-12
2022/04/03 10:04:55;;;;;;;5.80;3.42;;;17.30;37.00;;;;;;5093726;28;20024;-11
2022/04/03 10:07:22;;;;;;;3.88;3.25;;;17.30;38.30;;;;;;5093740;28;20026;-13
2022/04/03 10:09:52;;;;;;;6.40;4.07;;;17.30;38.40;;;;;;5093635;28;20030;-11
2022/04/03 10:12:20;;;;;;;3.35;3.00;;;17.40;37.10;;;;;;5093314;28;20020;-11
2022/04/03 10:14:49;;;;;;;3.90;3.22;;;17.20;38.20;;;;;;5092428;28;20482;-13
2022/04/03 10:17:18;;;;;;;5.07;3.35;;;17.30;38.90;;;;;;5093263;28;20484;-12
2022/04/03 10:19:44;;;;;;;4.68;3.38;;;17.30;39.30;;;;;;5093491;28;20103;-12
2022/04/03 10:22:19;;;;;;;6.32;4.13;;;17.20;38.80;;;;;;5093219;28;20031;-12
2022/04/03 10:24:51;;;;;;;5.53;3.97;;;16.90;38.10;;;;;;5093501;28;20047;-12
2022/04/03 10:27:27;;;;;;;5.90;4.28;;;16.50;39.80;;;;;;5093126;28;20120;-11
2022/04/03 10:29:57;;;;;;;5.80;4.30;;;16.30;40.10;;;;;;5093432;28;20031;-12
2022/04/03 10:32:33;;;;;;;5.32;3.90;;;16.30;39.40;;;;;;5093193;28;20055;-12
2022/04/03 10:35:12;;;;;;;6.05;4.10;;;16.40;37.80;;;;;;5093345;28;20071;-13
2022/04/03 10:37:40;;;;;;;7.00;4.25;;;16.10;38.70;;;;;;5093417;28;20024;-12
2022/04/03 10:40:08;;;;;;;7.80;4.25;;;15.90;39.20;;;;;;5093153;28;20024;-12
2022/04/03 10:42:51;;;;;;;6.25;4.10;;;15.90;39.90;;;;;;5092690;28;20038;-12
2022/04/03 10:45:35;;;;;;;8.23;4.60;;;15.70;40.40;;;;;;5093105;28;20028;-12
2022/04/03 10:48:28;;;;;;;5.82;4.32;;;16.00;41.00;;;;;;5092969;28;20028;-12
2022/04/03 10:51:11;;;;;;;7.90;4.20;;;16.80;37.80;;;;;;5089942;28;20519;-12
2022/04/03 10:53:37;;;;;;;6.47;4.50;;;17.00;37.50;;;;;;5092807;28;20055;-12
2022/04/03 10:56:21;;;;;;;7.22;4.20;;;17.30;36.90;;;;;;5092696;28;20107;-12
2022/04/03 10:58:49;;;;;;;7.20;4.90;;;17.50;36.30;;;;;;5093220;28;20031;-12
2022/04/03 11:01:42;;;;;;;7.63;4.75;;;17.90;37.30;;;;;;5093168;28;20028;-12
2022/04/03 11:04:13;;;;;;;8.32;4.30;;;18.20;38.20;;;;;;5089546;28;20081;-12
2022/04/03 11:06:41;;;;;;;8.80;4.50;;;18.40;35.60;;;;;;5092813;28;20024;-12
2022/04/03 11:09:12;;;;;;;8.13;5.20;;;18.50;35.90;;;;;;5092803;28;20035;-11
2022/04/03 11:11:50;;;;;;;8.73;4.95;;;18.90;36.90;;;;;;5092860;28;20507;-12
2022/04/03 11:14:48;;;;;;;7.20;4.93;;;19.20;36.30;;;;;;5092850;28;20031;-12
2022/04/03 11:17:16;;;;;;;6.75;4.28;;;19.50;36.10;;;;;;5092698;28;20510;-12
2022/04/03 11:19:45;;;;;;;8.80;4.82;;;19.50;35.40;;;;;;5092834;28;20036;-13
2022/04/03 11:22:17;;;;;;;8.57;5.18;;;19.10;36.40;;;;;;5092822;28;20024;-12
2022/04/03 11:24:44;;;;;;;9.02;5.00;;;18.90;35.20;;;;;;5093380;28;20466;-12
2022/04/03 11:27:12;;;;;;;7.97;4.60;;;18.50;36.30;;;;;;5096248;28;20110;-12
2022/04/03 11:29:38;;;;;;;8.55;4.60;;;18.30;35.70;;;;;;5096561;28;20039;-12
2022/04/03 11:32:07;;;;;;;7.88;4.97;;;18.30;35.00;;;;;;5096252;28;20384;-13
2022/04/03 11:34:34;;;;;;;8.75;4.80;;;18.30;36.40;;;;;;5096207;28;20054;-13
2022/04/03 11:37:03;;;;;;;8.25;4.25;;;18.40;35.90;;;;;;5096626;28;20059;-11
2022/04/03 11:39:37;;;;;;;6.82;4.53;;;18.30;36.80;;;;;;5096788;28;20084;-12
2022/04/03 11:42:06;;;;;;;8.60;5.20;;;18.20;37.40;;;;;;5096132;28;20464;-13
2022/04/03 11:44:34;;;;;;;7.30;4.32;;;18.10;36.90;;;;;;5095778;28;20062;-13
2022/04/03 11:47:01;;;;;;;8.88;5.75;;;17.90;36.00;;;;;;5095958;28;20068;-12
2022/04/03 11:49:29;;;;;;;10.13;5.28;;;17.50;36.70;;;;;;5094702;28;20384;-12
2022/04/03 11:52:07;;;;;;;9.82;5.32;;;17.20;36.70;;;;;;5095623;28;20073;-13
2022/04/03 11:54:34;;;;;;;7.93;4.40;;;16.90;37.10;;;;;;5095953;28;20023;-12
2022/04/03 11:57:10;;;;;;;7.30;4.80;;;16.40;38.10;;;;;;5095988;28;20032;-12
2022/04/03 11:59:38;;;;;;;6.50;4.28;;;16.20;39.00;;;;;;5095755;28;20028;-13
2022/04/03 12:02:15;;;;;;;9.00;3.95;;;16.10;37.70;;;;;;5096009;28;20062;-12
2022/04/03 12:04:42;;;;;;;9.55;5.05;;;15.90;38.20;;;;;;5096535;28;20059;-13
2022/04/03 12:07:13;;;;;;;7.70;5.07;;;15.70;38.50;;;;;;5096219;28;20027;-13
2022/04/03 12:09:41;;;;;;;10.85;5.60;;;15.40;39.50;;;;;;5095914;28;20024;-11
2022/04/03 12:12:09;;;;;;;5.82;4.10;;;15.10;40.00;;;;;;5095543;28;20012;-12
2022/04/03 12:14:38;;;;;;;9.10;5.25;;;15.00;39.70;;;;;;5095160;28;20387;-12
2022/04/03 12:17:10;;;;;;;11.25;4.82;;;14.90;39.00;;;;;;5095475;28;20039;-11
2022/04/03 12:19:39;;;;;;;8.60;4.82;;;14.40;40.50;;;;;;5095248;28;20024;-11
2022/04/03 12:22:08;;;;;;;9.32;4.60;;;14.00;41.40;;;;;;5095280;28;20023;-12
2022/04/03 12:24:35;;;;;;;9.00;4.70;;;13.90;41.60;;;;;;5095386;28;20039;-10
2022/04/03 12:27:22;;;;;;;8.25;4.78;;;13.60;42.30;;;;;;5095428;28;20031;-11
2022/04/03 12:29:52;;;;;;;9.02;5.00;;;13.30;43.30;;;;;;5095461;28;20028;-12
2022/04/03 12:32:29;;;;;;;10.77;5.15;;;13.00;43.90;;;;;;5095174;28;20028;-11
2022/04/03 12:34:56;;;;;;;10.98;4.90;;;12.80;44.80;;;;;;5095325;28;20047;-11
2022/04/03 12:37:22;;;;;;;10.45;6.57;;;12.70;45.40;;;;;;5094406;28;20035;-11
2022/04/03 12:39:50;;;;;;;7.45;5.10;;;12.60;45.50;;;;;;5094973;28;20028;-12
2022/04/03 12:42:26;;;;;;;6.38;4.22;;;12.40;46.10;;;;;;5094907;28;20032;-12
2022/04/03 12:44:59;;;;;;;10.43;5.85;;;12.40;45.80;;;;;;5095351;28;20033;-12
2022/04/03 12:47:40;;;;;;;7.15;4.57;;;12.30;46.40;;;;;;5095678;28;20490;-12
2022/04/03 12:50:06;;;;;;;10.52;5.75;;;12.20;46.30;;;;;;5094754;28;20024;-12
2022/04/03 12:52:47;;;;;;;9.23;5.80;;;12.10;48.50;;;;;;5094234;28;20054;-11